sensor_id;sensor_type;location;lat;lon;timestamp;temperature;humidity
56861;DHT22;42744;51.094;3.490;2023-01-24T00:01:13;3.20;99.90
56861;DHT22;42744;51.094;3.490;2023-01-24T00:03:39;3.20;99.90
56861;DHT22;42744;51.094;3.490;2023-01-24T00:06:05;3.20;99.90
56861;DHT22;42744;51.094;3.490;2023-01-24T00:08:32;3.20;99.90
56861;DHT22;42744;51.094;3.490;2023-01-24T00:13:25;3.20;99.90
56861;DHT22;42744;51.094;3.490;2023-01-24T00:15:51;3.20;99.90
56861;DHT22;42744;51.094;3.490;2023-01-24T00:18:17;3.20;99.90
56861;DHT22;42744;51.094;3.490;2023-01-24T00:20:43;3.20;99.90
56861;DHT22;42744;51.094;3.490;2023-01-24T00:23:09;3.20;99.90
56861;DHT22;42744;51.094;3.490;2023-01-24T00:25:35;3.10;99.90
56861;DHT22;42744;51.094;3.490;2023-01-24T00:28:01;3.20;99.90
56861;DHT22;42744;51.094;3.490;2023-01-24T00:30:27;3.20;99.90
56861;DHT22;42744;51.094;3.490;2023-01-24T00:32:56;3.20;99.90
56861;DHT22;42744;51.094;3.490;2023-01-24T00:35:22;3.10;99.90
56861;DHT22;42744;51.094;3.490;2023-01-24T00:37:48;3.10;99.90
56861;DHT22;42744;51.094;3.490;2023-01-24T00:40:14;3.20;99.90
56861;DHT22;42744;51.094;3.490;2023-01-24T00:42:40;3.20;99.90
56861;DHT22;42744;51.094;3.490;2023-01-24T00:45:07;3.10;99.90
56861;DHT22;42744;51.094;3.490;2023-01-24T00:47:33;3.10;99.90
56861;DHT22;42744;51.094;3.490;2023-01-24T00:49:59;3.10;99.90
56861;DHT22;42744;51.094;3.490;2023-01-24T00:52:25;3.10;99.90
56861;DHT22;42744;51.094;3.490;2023-01-24T00:54:51;3.10;99.90
56861;DHT22;42744;51.094;3.490;2023-01-24T00:57:17;3.10;99.90
56861;DHT22;42744;51.094;3.490;2023-01-24T00:59:43;3.10;99.90
56861;DHT22;42744;51.094;3.490;2023-01-24T01:02:10;3.10;99.90
56861;DHT22;42744;51.094;3.490;2023-01-24T01:04:36;3.10;99.90
56861;DHT22;42744;51.094;3.490;2023-01-24T01:07:02;3.10;99.90
56861;DHT22;42744;51.094;3.490;2023-01-24T01:09:28;3.10;99.90
56861;DHT22;42744;51.094;3.490;2023-01-24T01:11:54;3.10;99.90
56861;DHT22;42744;51.094;3.490;2023-01-24T01:14:20;3.10;99.90
56861;DHT22;42744;51.094;3.490;2023-01-24T01:16:46;3.10;99.90
56861;DHT22;42744;51.094;3.490;2023-01-24T01:19:12;3.00;99.90
56861;DHT22;42744;51.094;3.490;2023-01-24T01:21:38;3.10;99.90
56861;DHT22;42744;51.094;3.490;2023-01-24T01:24:05;3.00;99.90
56861;DHT22;42744;51.094;3.490;2023-01-24T01:26:31;3.00;99.90
56861;DHT22;42744;51.094;3.490;2023-01-24T01:28:58;3.00;99.90
56861;DHT22;42744;51.094;3.490;2023-01-24T01:31:24;3.00;99.90
56861;DHT22;42744;51.094;3.490;2023-01-24T01:33:50;2.90;99.90
56861;DHT22;42744;51.094;3.490;2023-01-24T01:36:16;3.00;99.90
56861;DHT22;42744;51.094;3.490;2023-01-24T01:38:42;3.00;99.90
56861;DHT22;42744;51.094;3.490;2023-01-24T01:41:12;2.90;99.90
56861;DHT22;42744;51.094;3.490;2023-01-24T01:43:38;2.90;99.90
56861;DHT22;42744;51.094;3.490;2023-01-24T01:46:25;2.90;99.90
56861;DHT22;42744;51.094;3.490;2023-01-24T01:48:55;2.90;99.90
56861;DHT22;42744;51.094;3.490;2023-01-24T01:51:27;2.90;99.90
56861;DHT22;42744;51.094;3.490;2023-01-24T01:53:58;2.90;99.90
56861;DHT22;42744;51.094;3.490;2023-01-24T01:56:42;2.90;99.90
56861;DHT22;42744;51.094;3.490;2023-01-24T01:59:12;2.90;99.90
56861;DHT22;42744;51.094;3.490;2023-01-24T02:01:41;2.90;99.90
56861;DHT22;42744;51.094;3.490;2023-01-24T02:04:16;2.90;99.90
56861;DHT22;42744;51.094;3.490;2023-01-24T02:07:05;2.90;99.90
56861;DHT22;42744;51.094;3.490;2023-01-24T02:09:39;2.90;99.90
56861;DHT22;42744;51.094;3.490;2023-01-24T02:12:20;2.90;99.90
56861;DHT22;42744;51.094;3.490;2023-01-24T02:14:50;2.80;99.90
56861;DHT22;42744;51.094;3.490;2023-01-24T02:17:35;2.90;99.90
56861;DHT22;42744;51.094;3.490;2023-01-24T02:20:42;2.90;99.90
56861;DHT22;42744;51.094;3.490;2023-01-24T02:26:19;2.90;99.90
56861;DHT22;42744;51.094;3.490;2023-01-24T02:28:54;2.90;99.90
56861;DHT22;42744;51.094;3.490;2023-01-24T02:31:22;2.80;99.90
56861;DHT22;42744;51.094;3.490;2023-01-24T02:33:49;2.90;99.90
56861;DHT22;42744;51.094;3.490;2023-01-24T02:39:00;2.90;99.90
56861;DHT22;42744;51.094;3.490;2023-01-24T02:41:42;2.90;99.90
56861;DHT22;42744;51.094;3.490;2023-01-24T02:44:13;2.80;99.90
56861;DHT22;42744;51.094;3.490;2023-01-24T02:46:43;2.90;99.90
56861;DHT22;42744;51.094;3.490;2023-01-24T02:49:11;2.80;99.90
56861;DHT22;42744;51.094;3.490;2023-01-24T02:51:37;2.80;99.90
56861;DHT22;42744;51.094;3.490;2023-01-24T02:54:22;2.80;99.90
56861;DHT22;42744;51.094;3.490;2023-01-24T02:56:49;2.80;99.90
56861;DHT22;42744;51.094;3.490;2023-01-24T02:59:33;2.80;99.90
56861;DHT22;42744;51.094;3.490;2023-01-24T03:01:59;2.80;99.90
56861;DHT22;42744;51.094;3.490;2023-01-24T03:04:25;2.80;99.90
56861;DHT22;42744;51.094;3.490;2023-01-24T03:06:52;2.80;99.90
56861;DHT22;42744;51.094;3.490;2023-01-24T03:09:19;2.80;99.90
56861;DHT22;42744;51.094;3.490;2023-01-24T03:11:49;2.80;99.90
56861;DHT22;42744;51.094;3.490;2023-01-24T03:14:16;2.80;99.90
56861;DHT22;42744;51.094;3.490;2023-01-24T03:17:01;2.80;99.90
56861;DHT22;42744;51.094;3.490;2023-01-24T03:19:45;2.80;99.90
56861;DHT22;42744;51.094;3.490;2023-01-24T03:22:34;2.80;99.90
56861;DHT22;42744;51.094;3.490;2023-01-24T03:25:19;2.70;99.90
56861;DHT22;42744;51.094;3.490;2023-01-24T03:28:05;2.70;99.90
56861;DHT22;42744;51.094;3.490;2023-01-24T03:30:50;2.70;99.90
56861;DHT22;42744;51.094;3.490;2023-01-24T03:33:35;2.70;99.90
56861;DHT22;42744;51.094;3.490;2023-01-24T03:36:21;2.70;99.90
56861;DHT22;42744;51.094;3.490;2023-01-24T03:38:57;2.70;99.90
56861;DHT22;42744;51.094;3.490;2023-01-24T03:41:44;2.70;99.90
56861;DHT22;42744;51.094;3.490;2023-01-24T03:44:10;2.70;99.90
56861;DHT22;42744;51.094;3.490;2023-01-24T03:46:36;2.70;99.90
56861;DHT22;42744;51.094;3.490;2023-01-24T03:49:08;2.70;99.90
56861;DHT22;42744;51.094;3.490;2023-01-24T03:51:35;2.70;99.90
56861;DHT22;42744;51.094;3.490;2023-01-24T03:54:20;2.70;99.90
56861;DHT22;42744;51.094;3.490;2023-01-24T03:56:46;2.60;99.90
56861;DHT22;42744;51.094;3.490;2023-01-24T03:59:13;2.70;99.90
56861;DHT22;42744;51.094;3.490;2023-01-24T04:01:40;2.60;99.90
56861;DHT22;42744;51.094;3.490;2023-01-24T04:04:07;2.60;99.90
56861;DHT22;42744;51.094;3.490;2023-01-24T04:06:34;2.60;99.90
56861;DHT22;42744;51.094;3.490;2023-01-24T04:09:00;2.60;99.90
56861;DHT22;42744;51.094;3.490;2023-01-24T04:11:26;2.60;99.90
56861;DHT22;42744;51.094;3.490;2023-01-24T04:13:53;2.60;99.90
56861;DHT22;42744;51.094;3.490;2023-01-24T04:16:19;2.60;99.90
56861;DHT22;42744;51.094;3.490;2023-01-24T04:18:47;2.60;99.90
56861;DHT22;42744;51.094;3.490;2023-01-24T04:21:13;2.60;99.90
56861;DHT22;42744;51.094;3.490;2023-01-24T04:23:39;2.60;99.90
56861;DHT22;42744;51.094;3.490;2023-01-24T04:26:05;2.60;99.90
56861;DHT22;42744;51.094;3.490;2023-01-24T04:28:32;2.60;99.90
56861;DHT22;42744;51.094;3.490;2023-01-24T04:31:00;2.60;99.90
56861;DHT22;42744;51.094;3.490;2023-01-24T04:33:29;2.60;99.90
56861;DHT22;42744;51.094;3.490;2023-01-24T04:35:59;2.50;99.90
56861;DHT22;42744;51.094;3.490;2023-01-24T04:38:25;2.50;99.90
56861;DHT22;42744;51.094;3.490;2023-01-24T04:41:00;2.50;99.90
56861;DHT22;42744;51.094;3.490;2023-01-24T04:43:27;2.50;99.90
56861;DHT22;42744;51.094;3.490;2023-01-24T04:45:56;2.50;99.90
56861;DHT22;42744;51.094;3.490;2023-01-24T04:48:25;2.50;99.90
56861;DHT22;42744;51.094;3.490;2023-01-24T04:50:51;2.50;99.90
56861;DHT22;42744;51.094;3.490;2023-01-24T04:53:21;2.50;99.90
56861;DHT22;42744;51.094;3.490;2023-01-24T04:55:49;2.50;99.90
56861;DHT22;42744;51.094;3.490;2023-01-24T04:58:15;2.50;99.90
56861;DHT22;42744;51.094;3.490;2023-01-24T05:00:41;2.50;99.90
56861;DHT22;42744;51.094;3.490;2023-01-24T05:03:08;2.50;99.90
56861;DHT22;42744;51.094;3.490;2023-01-24T05:05:34;2.50;99.90
56861;DHT22;42744;51.094;3.490;2023-01-24T05:08:01;2.50;99.90
56861;DHT22;42744;51.094;3.490;2023-01-24T05:10:27;2.50;99.90
56861;DHT22;42744;51.094;3.490;2023-01-24T05:12:53;2.50;99.90
56861;DHT22;42744;51.094;3.490;2023-01-24T05:15:19;2.50;99.90
56861;DHT22;42744;51.094;3.490;2023-01-24T05:17:50;2.50;99.90
56861;DHT22;42744;51.094;3.490;2023-01-24T05:20:16;2.50;99.90
56861;DHT22;42744;51.094;3.490;2023-01-24T05:22:43;2.40;99.90
56861;DHT22;42744;51.094;3.490;2023-01-24T05:25:17;2.40;99.90
56861;DHT22;42744;51.094;3.490;2023-01-24T05:27:43;2.40;99.90
56861;DHT22;42744;51.094;3.490;2023-01-24T05:30:10;2.40;99.90
56861;DHT22;42744;51.094;3.490;2023-01-24T05:32:37;2.40;99.90
56861;DHT22;42744;51.094;3.490;2023-01-24T05:35:04;2.40;99.90
56861;DHT22;42744;51.094;3.490;2023-01-24T05:37:30;2.40;99.90
56861;DHT22;42744;51.094;3.490;2023-01-24T05:39:56;2.40;99.90
56861;DHT22;42744;51.094;3.490;2023-01-24T05:42:23;2.40;99.90
56861;DHT22;42744;51.094;3.490;2023-01-24T05:44:49;2.40;99.90
56861;DHT22;42744;51.094;3.490;2023-01-24T05:47:15;2.40;99.90
56861;DHT22;42744;51.094;3.490;2023-01-24T05:49:44;2.40;99.90
56861;DHT22;42744;51.094;3.490;2023-01-24T05:52:10;2.40;99.90
56861;DHT22;42744;51.094;3.490;2023-01-24T05:54:37;2.40;99.90
56861;DHT22;42744;51.094;3.490;2023-01-24T05:57:04;2.40;99.90
56861;DHT22;42744;51.094;3.490;2023-01-24T05:59:30;2.40;99.90
56861;DHT22;42744;51.094;3.490;2023-01-24T06:01:57;2.40;99.90
56861;DHT22;42744;51.094;3.490;2023-01-24T06:04:23;2.40;99.90
56861;DHT22;42744;51.094;3.490;2023-01-24T06:06:49;2.40;99.90
56861;DHT22;42744;51.094;3.490;2023-01-24T06:09:15;2.40;99.90
56861;DHT22;42744;51.094;3.490;2023-01-24T06:11:43;2.40;99.90
56861;DHT22;42744;51.094;3.490;2023-01-24T06:14:09;2.30;99.90
56861;DHT22;42744;51.094;3.490;2023-01-24T06:16:35;2.40;99.90
56861;DHT22;42744;51.094;3.490;2023-01-24T06:19:02;2.30;99.90
56861;DHT22;42744;51.094;3.490;2023-01-24T06:21:48;2.30;99.90
56861;DHT22;42744;51.094;3.490;2023-01-24T06:24:23;2.30;99.90
56861;DHT22;42744;51.094;3.490;2023-01-24T06:26:50;2.30;99.90
56861;DHT22;42744;51.094;3.490;2023-01-24T06:29:18;2.30;99.90
56861;DHT22;42744;51.094;3.490;2023-01-24T06:37:45;2.30;99.90
56861;DHT22;42744;51.094;3.490;2023-01-24T06:40:13;2.30;99.90
56861;DHT22;42744;51.094;3.490;2023-01-24T06:42:40;2.30;99.90
56861;DHT22;42744;51.094;3.490;2023-01-24T06:45:07;2.30;99.90
56861;DHT22;42744;51.094;3.490;2023-01-24T06:47:33;2.30;99.90
56861;DHT22;42744;51.094;3.490;2023-01-24T06:50:00;2.30;99.90
56861;DHT22;42744;51.094;3.490;2023-01-24T06:52:26;2.30;99.90
56861;DHT22;42744;51.094;3.490;2023-01-24T06:54:52;2.30;99.90
56861;DHT22;42744;51.094;3.490;2023-01-24T06:57:18;2.30;99.90
56861;DHT22;42744;51.094;3.490;2023-01-24T06:59:44;2.30;99.90
56861;DHT22;42744;51.094;3.490;2023-01-24T07:02:11;2.30;99.90
56861;DHT22;42744;51.094;3.490;2023-01-24T07:04:37;2.30;99.90
56861;DHT22;42744;51.094;3.490;2023-01-24T07:07:04;2.30;99.90
56861;DHT22;42744;51.094;3.490;2023-01-24T07:09:32;2.30;99.90
56861;DHT22;42744;51.094;3.490;2023-01-24T07:11:58;2.30;99.90
56861;DHT22;42744;51.094;3.490;2023-01-24T07:14:25;2.30;99.90
56861;DHT22;42744;51.094;3.490;2023-01-24T07:16:51;2.30;99.90
56861;DHT22;42744;51.094;3.490;2023-01-24T07:19:19;2.30;99.90
56861;DHT22;42744;51.094;3.490;2023-01-24T07:21:50;2.30;99.90
56861;DHT22;42744;51.094;3.490;2023-01-24T07:24:27;2.30;99.90
56861;DHT22;42744;51.094;3.490;2023-01-24T07:26:54;2.30;99.90
56861;DHT22;42744;51.094;3.490;2023-01-24T07:29:21;2.30;99.90
56861;DHT22;42744;51.094;3.490;2023-01-24T07:31:47;2.30;99.90
56861;DHT22;42744;51.094;3.490;2023-01-24T07:34:14;2.30;99.90
56861;DHT22;42744;51.094;3.490;2023-01-24T07:36:42;2.30;99.90
56861;DHT22;42744;51.094;3.490;2023-01-24T07:39:08;2.30;99.90
56861;DHT22;42744;51.094;3.490;2023-01-24T07:41:35;2.30;99.90
56861;DHT22;42744;51.094;3.490;2023-01-24T07:44:02;2.30;99.90
56861;DHT22;42744;51.094;3.490;2023-01-24T07:46:35;2.30;99.90
56861;DHT22;42744;51.094;3.490;2023-01-24T07:49:02;2.30;99.90
56861;DHT22;42744;51.094;3.490;2023-01-24T07:51:28;2.30;99.90
56861;DHT22;42744;51.094;3.490;2023-01-24T07:53:54;2.30;99.90
56861;DHT22;42744;51.094;3.490;2023-01-24T07:56:21;2.30;99.90
56861;DHT22;42744;51.094;3.490;2023-01-24T07:58:47;2.30;99.90
56861;DHT22;42744;51.094;3.490;2023-01-24T08:01:17;2.30;99.90
56861;DHT22;42744;51.094;3.490;2023-01-24T08:03:44;2.30;99.90
56861;DHT22;42744;51.094;3.490;2023-01-24T08:06:10;2.30;99.90
56861;DHT22;42744;51.094;3.490;2023-01-24T08:08:36;2.30;99.90
56861;DHT22;42744;51.094;3.490;2023-01-24T08:11:03;2.30;99.90
56861;DHT22;42744;51.094;3.490;2023-01-24T08:13:29;2.40;99.90
56861;DHT22;42744;51.094;3.490;2023-01-24T08:15:55;2.30;99.90
56861;DHT22;42744;51.094;3.490;2023-01-24T08:18:24;2.40;99.90
56861;DHT22;42744;51.094;3.490;2023-01-24T08:20:56;2.30;99.90
56861;DHT22;42744;51.094;3.490;2023-01-24T08:23:23;2.40;99.90
56861;DHT22;42744;51.094;3.490;2023-01-24T08:25:49;2.40;99.90
56861;DHT22;42744;51.094;3.490;2023-01-24T08:28:17;2.40;99.90
56861;DHT22;42744;51.094;3.490;2023-01-24T08:30:44;2.40;99.90
56861;DHT22;42744;51.094;3.490;2023-01-24T08:33:10;2.40;99.90
56861;DHT22;42744;51.094;3.490;2023-01-24T08:35:43;2.40;99.90
56861;DHT22;42744;51.094;3.490;2023-01-24T08:38:09;2.40;99.90
56861;DHT22;42744;51.094;3.490;2023-01-24T08:40:35;2.30;99.90
56861;DHT22;42744;51.094;3.490;2023-01-24T08:43:01;2.30;99.90
56861;DHT22;42744;51.094;3.490;2023-01-24T08:45:30;2.30;99.90
56861;DHT22;42744;51.094;3.490;2023-01-24T08:47:57;2.30;99.90
56861;DHT22;42744;51.094;3.490;2023-01-24T08:50:23;2.30;99.90
56861;DHT22;42744;51.094;3.490;2023-01-24T08:52:55;2.40;99.90
56861;DHT22;42744;51.094;3.490;2023-01-24T08:55:23;2.40;99.90
56861;DHT22;42744;51.094;3.490;2023-01-24T08:57:49;2.40;99.90
56861;DHT22;42744;51.094;3.490;2023-01-24T09:00:16;2.40;99.90
56861;DHT22;42744;51.094;3.490;2023-01-24T09:02:42;2.40;99.90
56861;DHT22;42744;51.094;3.490;2023-01-24T09:05:08;2.40;99.90
56861;DHT22;42744;51.094;3.490;2023-01-24T09:07:35;2.40;99.90
56861;DHT22;42744;51.094;3.490;2023-01-24T09:10:05;2.40;99.90
56861;DHT22;42744;51.094;3.490;2023-01-24T09:12:31;2.40;99.90
56861;DHT22;42744;51.094;3.490;2023-01-24T09:14:59;2.40;99.90
56861;DHT22;42744;51.094;3.490;2023-01-24T09:17:25;2.40;99.90
56861;DHT22;42744;51.094;3.490;2023-01-24T09:19:54;2.50;99.90
56861;DHT22;42744;51.094;3.490;2023-01-24T09:22:20;2.50;99.90
56861;DHT22;42744;51.094;3.490;2023-01-24T09:24:49;2.50;99.90
56861;DHT22;42744;51.094;3.490;2023-01-24T09:27:15;2.50;99.90
56861;DHT22;42744;51.094;3.490;2023-01-24T09:29:41;2.50;99.90
56861;DHT22;42744;51.094;3.490;2023-01-24T09:32:07;2.50;99.90
56861;DHT22;42744;51.094;3.490;2023-01-24T09:34:33;2.50;99.90
56861;DHT22;42744;51.094;3.490;2023-01-24T09:36:59;2.50;99.90
56861;DHT22;42744;51.094;3.490;2023-01-24T09:39:25;2.60;99.90
56861;DHT22;42744;51.094;3.490;2023-01-24T09:42:03;2.60;99.90
56861;DHT22;42744;51.094;3.490;2023-01-24T09:44:38;2.60;99.90
56861;DHT22;42744;51.094;3.490;2023-01-24T09:47:19;2.60;99.90
56861;DHT22;42744;51.094;3.490;2023-01-24T09:50:04;2.60;99.90
56861;DHT22;42744;51.094;3.490;2023-01-24T09:52:36;2.70;99.90
56861;DHT22;42744;51.094;3.490;2023-01-24T09:57:55;2.70;99.90
56861;DHT22;42744;51.094;3.490;2023-01-24T10:00:24;2.70;99.90
56861;DHT22;42744;51.094;3.490;2023-01-24T10:02:55;2.70;99.90
56861;DHT22;42744;51.094;3.490;2023-01-24T10:10:53;2.70;99.90
56861;DHT22;42744;51.094;3.490;2023-01-24T10:25:03;2.80;99.90
56861;DHT22;42744;51.094;3.490;2023-01-24T10:27:36;2.80;99.90
56861;DHT22;42744;51.094;3.490;2023-01-24T10:30:22;2.80;99.90
56861;DHT22;42744;51.094;3.490;2023-01-24T10:32:57;2.90;99.90
56861;DHT22;42744;51.094;3.490;2023-01-24T10:35:35;2.80;99.90
56861;DHT22;42744;51.094;3.490;2023-01-24T10:38:05;2.80;99.90
56861;DHT22;42744;51.094;3.490;2023-01-24T10:40:32;2.70;99.90
56861;DHT22;42744;51.094;3.490;2023-01-24T10:43:04;2.70;99.90
56861;DHT22;42744;51.094;3.490;2023-01-24T10:48:05;2.80;99.90
56861;DHT22;42744;51.094;3.490;2023-01-24T10:50:42;2.80;99.90
56861;DHT22;42744;51.094;3.490;2023-01-24T10:53:13;2.80;99.90
56861;DHT22;42744;51.094;3.490;2023-01-24T10:55:40;2.80;99.90
56861;DHT22;42744;51.094;3.490;2023-01-24T11:01:14;2.80;99.90
56861;DHT22;42744;51.094;3.490;2023-01-24T11:03:43;2.90;99.90
56861;DHT22;42744;51.094;3.490;2023-01-24T11:06:37;2.80;99.90
56861;DHT22;42744;51.094;3.490;2023-01-24T11:09:15;2.80;99.90
56861;DHT22;42744;51.094;3.490;2023-01-24T11:11:53;2.80;99.90
56861;DHT22;42744;51.094;3.490;2023-01-24T11:14:28;2.80;99.90
56861;DHT22;42744;51.094;3.490;2023-01-24T11:17:00;2.80;99.90
56861;DHT22;42744;51.094;3.490;2023-01-24T11:19:45;2.80;99.90
56861;DHT22;42744;51.094;3.490;2023-01-24T11:22:25;2.80;99.90
56861;DHT22;42744;51.094;3.490;2023-01-24T11:25:00;2.80;99.90
56861;DHT22;42744;51.094;3.490;2023-01-24T11:27:27;2.80;99.90
56861;DHT22;42744;51.094;3.490;2023-01-24T11:30:17;2.80;99.90
56861;DHT22;42744;51.094;3.490;2023-01-24T11:35:33;2.80;99.90
56861;DHT22;42744;51.094;3.490;2023-01-24T11:38:36;2.80;99.90
56861;DHT22;42744;51.094;3.490;2023-01-24T11:41:13;2.80;99.90
56861;DHT22;42744;51.094;3.490;2023-01-24T11:48:57;2.80;99.90
56861;DHT22;42744;51.094;3.490;2023-01-24T11:57:19;2.80;99.90
56861;DHT22;42744;51.094;3.490;2023-01-24T12:06:05;2.80;99.90
56861;DHT22;42744;51.094;3.490;2023-01-24T12:13:51;2.80;99.90
56861;DHT22;42744;51.094;3.490;2023-01-24T12:21:39;2.90;99.90
56861;DHT22;42744;51.094;3.490;2023-01-24T12:26:36;2.80;99.90
56861;DHT22;42744;51.094;3.490;2023-01-24T12:29:15;2.80;99.90
56861;DHT22;42744;51.094;3.490;2023-01-24T12:31:59;2.80;99.90
56861;DHT22;42744;51.094;3.490;2023-01-24T12:34:50;2.80;99.90
56861;DHT22;42744;51.094;3.490;2023-01-24T12:45:40;2.80;99.90
56861;DHT22;42744;51.094;3.490;2023-01-24T12:51:32;2.80;99.90
56861;DHT22;42744;51.094;3.490;2023-01-24T12:57:30;2.80;99.90
56861;DHT22;42744;51.094;3.490;2023-01-24T12:59:58;2.90;99.90
56861;DHT22;42744;51.094;3.490;2023-01-24T13:05:51;3.00;99.90
56861;DHT22;42744;51.094;3.490;2023-01-24T13:08:38;2.90;99.90
56861;DHT22;42744;51.094;3.490;2023-01-24T13:11:22;2.90;99.90
56861;DHT22;42744;51.094;3.490;2023-01-24T13:14:38;2.90;99.90
56861;DHT22;42744;51.094;3.490;2023-01-24T13:33:03;2.90;99.90
56861;DHT22;42744;51.094;3.490;2023-01-24T13:35:31;2.90;99.90
56861;DHT22;42744;51.094;3.490;2023-01-24T13:38:05;2.90;99.90
56861;DHT22;42744;51.094;3.490;2023-01-24T13:40:40;2.90;99.90
56861;DHT22;42744;51.094;3.490;2023-01-24T13:46:10;3.00;99.90
56861;DHT22;42744;51.094;3.490;2023-01-24T13:48:43;3.10;99.90
56861;DHT22;42744;51.094;3.490;2023-01-24T13:54:02;3.20;99.90
56861;DHT22;42744;51.094;3.490;2023-01-24T13:56:29;3.20;99.90
56861;DHT22;42744;51.094;3.490;2023-01-24T13:58:55;3.10;99.90
56861;DHT22;42744;51.094;3.490;2023-01-24T14:01:22;3.00;99.90
56861;DHT22;42744;51.094;3.490;2023-01-24T14:04:02;3.00;99.90
56861;DHT22;42744;51.094;3.490;2023-01-24T14:06:43;2.90;99.90
56861;DHT22;42744;51.094;3.490;2023-01-24T14:11:50;2.80;99.90
56861;DHT22;42744;51.094;3.490;2023-01-24T14:14:27;2.80;99.90
56861;DHT22;42744;51.094;3.490;2023-01-24T14:16:58;2.80;99.90
56861;DHT22;42744;51.094;3.490;2023-01-24T14:19:31;2.80;99.90
56861;DHT22;42744;51.094;3.490;2023-01-24T14:35:18;2.80;99.90
56861;DHT22;42744;51.094;3.490;2023-01-24T14:37:46;2.80;99.90
56861;DHT22;42744;51.094;3.490;2023-01-24T14:40:22;2.80;99.90
56861;DHT22;42744;51.094;3.490;2023-01-24T14:42:51;2.70;99.90
56861;DHT22;42744;51.094;3.490;2023-01-24T14:45:26;2.70;99.90
56861;DHT22;42744;51.094;3.490;2023-01-24T14:47:53;2.70;99.90
56861;DHT22;42744;51.094;3.490;2023-01-24T14:50:31;2.70;99.90
56861;DHT22;42744;51.094;3.490;2023-01-24T14:53:21;2.70;99.90
56861;DHT22;42744;51.094;3.490;2023-01-24T14:55:48;2.70;99.90
56861;DHT22;42744;51.094;3.490;2023-01-24T14:58:20;2.70;99.90
56861;DHT22;42744;51.094;3.490;2023-01-24T15:00:47;2.70;99.90
56861;DHT22;42744;51.094;3.490;2023-01-24T15:03:20;2.60;99.90
56861;DHT22;42744;51.094;3.490;2023-01-24T15:05:55;2.60;99.90
56861;DHT22;42744;51.094;3.490;2023-01-24T15:08:21;2.70;99.90
56861;DHT22;42744;51.094;3.490;2023-01-24T15:11:00;2.70;99.90
56861;DHT22;42744;51.094;3.490;2023-01-24T15:13:32;2.70;99.90
56861;DHT22;42744;51.094;3.490;2023-01-24T15:15:59;2.70;99.90
56861;DHT22;42744;51.094;3.490;2023-01-24T15:18:35;2.70;99.90
56861;DHT22;42744;51.094;3.490;2023-01-24T15:21:03;2.60;99.90
56861;DHT22;42744;51.094;3.490;2023-01-24T15:23:31;2.60;99.90
56861;DHT22;42744;51.094;3.490;2023-01-24T15:25:58;2.60;99.90
56861;DHT22;42744;51.094;3.490;2023-01-24T15:28:43;2.70;99.90
56861;DHT22;42744;51.094;3.490;2023-01-24T15:31:21;2.70;99.90
56861;DHT22;42744;51.094;3.490;2023-01-24T15:33:59;2.60;99.90
56861;DHT22;42744;51.094;3.490;2023-01-24T15:36:31;2.60;99.90
56861;DHT22;42744;51.094;3.490;2023-01-24T15:38:59;2.70;99.90
56861;DHT22;42744;51.094;3.490;2023-01-24T15:41:27;2.60;99.90
56861;DHT22;42744;51.094;3.490;2023-01-24T15:44:15;2.60;99.90
56861;DHT22;42744;51.094;3.490;2023-01-24T15:46:43;2.50;99.90
56861;DHT22;42744;51.094;3.490;2023-01-24T15:49:37;2.50;99.90
56861;DHT22;42744;51.094;3.490;2023-01-24T15:54:37;2.40;99.90
56861;DHT22;42744;51.094;3.490;2023-01-24T15:59:42;2.50;99.90
56861;DHT22;42744;51.094;3.490;2023-01-24T16:02:12;2.40;99.90
56861;DHT22;42744;51.094;3.490;2023-01-24T16:04:39;2.40;99.90
56861;DHT22;42744;51.094;3.490;2023-01-24T16:07:05;2.40;99.90
56861;DHT22;42744;51.094;3.490;2023-01-24T16:09:32;2.40;99.90
56861;DHT22;42744;51.094;3.490;2023-01-24T16:11:59;2.30;99.90
56861;DHT22;42744;51.094;3.490;2023-01-24T16:14:26;2.30;99.90
56861;DHT22;42744;51.094;3.490;2023-01-24T16:16:54;2.30;99.90
56861;DHT22;42744;51.094;3.490;2023-01-24T16:19:23;2.30;99.90
56861;DHT22;42744;51.094;3.490;2023-01-24T16:21:50;2.30;99.90
56861;DHT22;42744;51.094;3.490;2023-01-24T16:24:16;2.30;99.90
56861;DHT22;42744;51.094;3.490;2023-01-24T16:26:48;2.40;99.90
56861;DHT22;42744;51.094;3.490;2023-01-24T16:29:16;2.40;99.90
56861;DHT22;42744;51.094;3.490;2023-01-24T16:31:44;2.30;99.90
56861;DHT22;42744;51.094;3.490;2023-01-24T16:34:10;2.30;99.90
56861;DHT22;42744;51.094;3.490;2023-01-24T16:36:36;2.30;99.90
56861;DHT22;42744;51.094;3.490;2023-01-24T16:39:04;2.40;99.90
56861;DHT22;42744;51.094;3.490;2023-01-24T16:41:30;2.30;99.90
56861;DHT22;42744;51.094;3.490;2023-01-24T16:43:56;2.30;99.90
56861;DHT22;42744;51.094;3.490;2023-01-24T16:46:23;2.30;99.90
56861;DHT22;42744;51.094;3.490;2023-01-24T16:48:49;2.30;99.90
56861;DHT22;42744;51.094;3.490;2023-01-24T16:51:16;2.30;99.90
56861;DHT22;42744;51.094;3.490;2023-01-24T16:53:43;2.30;99.90
56861;DHT22;42744;51.094;3.490;2023-01-24T16:56:09;2.30;99.90
56861;DHT22;42744;51.094;3.490;2023-01-24T16:58:36;2.30;99.90
56861;DHT22;42744;51.094;3.490;2023-01-24T17:01:09;2.30;99.90
56861;DHT22;42744;51.094;3.490;2023-01-24T17:03:36;2.30;99.90
56861;DHT22;42744;51.094;3.490;2023-01-24T17:06:11;2.20;99.90
56861;DHT22;42744;51.094;3.490;2023-01-24T17:08:39;2.30;99.90
56861;DHT22;42744;51.094;3.490;2023-01-24T17:11:07;2.30;99.90
56861;DHT22;42744;51.094;3.490;2023-01-24T17:13:33;2.30;99.90
56861;DHT22;42744;51.094;3.490;2023-01-24T17:16:09;2.30;99.90
56861;DHT22;42744;51.094;3.490;2023-01-24T17:18:36;2.30;99.90
56861;DHT22;42744;51.094;3.490;2023-01-24T17:21:05;2.30;99.90
56861;DHT22;42744;51.094;3.490;2023-01-24T17:23:32;2.20;99.90
56861;DHT22;42744;51.094;3.490;2023-01-24T17:26:01;2.20;99.90
56861;DHT22;42744;51.094;3.490;2023-01-24T17:28:27;2.30;99.90
56861;DHT22;42744;51.094;3.490;2023-01-24T17:30:53;2.30;99.90
56861;DHT22;42744;51.094;3.490;2023-01-24T17:33:22;2.20;99.90
56861;DHT22;42744;51.094;3.490;2023-01-24T17:35:48;2.20;99.90
56861;DHT22;42744;51.094;3.490;2023-01-24T17:38:14;2.20;99.90
56861;DHT22;42744;51.094;3.490;2023-01-24T17:40:41;2.20;99.90
56861;DHT22;42744;51.094;3.490;2023-01-24T17:43:07;2.20;99.90
56861;DHT22;42744;51.094;3.490;2023-01-24T17:45:33;2.20;99.90
56861;DHT22;42744;51.094;3.490;2023-01-24T17:48:00;2.20;99.90
56861;DHT22;42744;51.094;3.490;2023-01-24T17:50:26;2.20;99.90
56861;DHT22;42744;51.094;3.490;2023-01-24T17:52:52;2.20;99.90
56861;DHT22;42744;51.094;3.490;2023-01-24T17:55:19;2.10;99.90
56861;DHT22;42744;51.094;3.490;2023-01-24T17:57:45;2.10;99.90
56861;DHT22;42744;51.094;3.490;2023-01-24T18:00:11;2.10;99.90
56861;DHT22;42744;51.094;3.490;2023-01-24T18:02:37;2.00;99.90
56861;DHT22;42744;51.094;3.490;2023-01-24T18:05:04;2.00;99.90
56861;DHT22;42744;51.094;3.490;2023-01-24T18:07:30;2.00;99.90
56861;DHT22;42744;51.094;3.490;2023-01-24T18:09:56;2.00;99.90
56861;DHT22;42744;51.094;3.490;2023-01-24T18:12:22;2.00;99.90
56861;DHT22;42744;51.094;3.490;2023-01-24T18:14:48;2.00;99.90
56861;DHT22;42744;51.094;3.490;2023-01-24T18:17:14;2.00;99.90